Time;durP1;ratioP1;P1;durP2;ratioP2;P2;SDS_P1;SDS_P2;PMS_P1;PMS_P2;Temp;Humidity;BMP_temperature;BMP_pressure;BME280_temperature;BME280_humidity;BME280_pressure;Samples;Min_cycle;Max_cycle;Signal;HPM_P1;HPM_P2
2022/01/25 00:26:33;;;;;;;33.27;19.97;;;4.30;99.90;;;;;;4900049;29;20207;-90
2022/01/25 00:31:33;;;;;;;27.87;18.57;;;4.30;99.90;;;;;;4900259;29;20215;-90
2022/01/25 00:33:59;;;;;;;25.87;18.40;;;4.30;99.90;;;;;;4898934;29;20190;-90
2022/01/25 00:36:27;;;;;;;26.07;18.37;;;4.30;99.90;;;;;;4898780;29;20183;-90
2022/01/25 00:38:54;;;;;;;28.53;18.63;;;4.30;99.90;;;;;;4913500;29;20202;-90
2022/01/25 00:41:21;;;;;;;28.27;19.07;;;4.30;99.90;;;;;;4917354;29;20183;-90
2022/01/25 00:43:47;;;;;;;28.13;18.67;;;4.30;99.90;;;;;;4917666;29;20195;-91
2022/01/25 00:46:14;;;;;;;26.50;18.33;;;4.20;99.90;;;;;;4917430;29;20183;-91
2022/01/25 00:48:44;;;;;;;24.93;18.07;;;4.20;99.90;;;;;;4917372;29;20187;-90
2022/01/25 00:54:26;;;;;;;24.83;18.43;;;4.20;99.90;;;;;;4919091;29;20179;-90
2022/01/25 00:56:52;;;;;;;28.87;18.67;;;4.20;99.90;;;;;;4917465;29;20174;-91
2022/01/25 00:59:36;;;;;;;25.53;18.07;;;4.20;99.90;;;;;;4917784;29;20178;-90
2022/01/25 01:02:10;;;;;;;28.90;18.67;;;4.20;99.90;;;;;;4917527;29;20515;-91
2022/01/25 01:04:36;;;;;;;26.07;18.20;;;4.20;99.90;;;;;;4917201;29;20218;-91
2022/01/25 01:07:06;;;;;;;26.57;17.33;;;4.20;99.90;;;;;;4917086;29;20179;-91
2022/01/25 01:09:34;;;;;;;25.77;18.70;;;4.20;99.90;;;;;;4917259;29;20186;-91
2022/01/25 01:12:06;;;;;;;29.03;18.67;;;4.30;99.90;;;;;;4917489;29;20218;-91
2022/01/25 01:48:58;;;;;;;26.37;18.97;;;4.20;99.90;;;;;;4884376;29;20168;-93
2022/01/25 01:51:30;;;;;;;27.50;19.47;;;4.20;99.90;;;;;;4883018;29;20220;-92
2022/01/25 01:54:01;;;;;;;26.27;18.90;;;4.20;99.90;;;;;;4900642;29;20191;-92
2022/01/25 01:56:27;;;;;;;26.27;18.30;;;4.20;99.90;;;;;;4901616;29;20176;-94
2022/01/25 01:58:55;;;;;;;26.70;19.47;;;4.20;99.90;;;;;;4901816;29;20174;-93
2022/01/25 02:01:24;;;;;;;25.67;18.77;;;4.20;99.90;;;;;;4901029;29;20175;-93
2022/01/25 02:03:50;;;;;;;25.07;18.80;;;4.20;99.90;;;;;;4901743;29;20183;-93
2022/01/25 02:06:17;;;;;;;26.07;17.97;;;4.20;99.90;;;;;;4901517;29;20183;-93
2022/01/25 02:08:43;;;;;;;28.57;19.30;;;4.20;99.90;;;;;;4900979;29;20195;-93
2022/01/25 02:11:09;;;;;;;27.90;19.33;;;4.20;99.90;;;;;;4900835;29;20211;-93
2022/01/25 02:13:37;;;;;;;28.73;19.70;;;4.20;99.90;;;;;;4901804;29;20222;-92
2022/01/25 02:16:06;;;;;;;29.63;19.60;;;4.20;99.90;;;;;;4900217;29;20195;-93
2022/01/25 02:24:00;;;;;;;28.47;19.73;;;4.20;99.90;;;;;;4902745;29;20670;-93
2022/01/25 02:26:26;;;;;;;27.07;18.77;;;4.20;99.90;;;;;;4901025;29;20274;-93
2022/01/25 02:28:52;;;;;;;29.53;20.67;;;4.10;99.90;;;;;;4901234;29;20183;-93
2022/01/25 02:31:18;;;;;;;32.80;20.73;;;4.10;99.90;;;;;;4901048;29;20604;-92
2022/01/25 02:33:44;;;;;;;34.20;21.23;;;4.10;99.90;;;;;;4900886;29;20242;-93
2022/01/25 02:36:16;;;;;;;34.23;22.00;;;4.10;99.90;;;;;;4900926;29;20238;-93
2022/01/25 02:38:42;;;;;;;31.63;21.67;;;4.10;99.90;;;;;;4901118;29;20167;-93
2022/01/25 02:41:08;;;;;;;31.47;21.23;;;4.20;99.90;;;;;;4900811;29;20187;-92
2022/01/25 02:43:36;;;;;;;28.90;20.93;;;4.20;99.90;;;;;;4901047;29;20187;-93
2022/01/25 02:48:56;;;;;;;31.40;20.83;;;4.20;99.90;;;;;;4876279;29;20206;-93
2022/01/25 02:51:28;;;;;;;36.27;21.80;;;4.20;99.90;;;;;;4882256;29;20219;-93
2022/01/25 02:53:56;;;;;;;34.23;21.57;;;4.10;99.90;;;;;;4900342;29;20195;-93
2022/01/25 02:56:22;;;;;;;33.30;21.87;;;4.10;99.90;;;;;;4900395;29;20503;-93
2022/01/25 02:58:49;;;;;;;33.73;22.00;;;4.10;99.90;;;;;;4900195;29;20195;-93
2022/01/25 03:01:15;;;;;;;37.03;21.83;;;4.10;99.90;;;;;;4900554;29;20187;-93
2022/01/25 03:03:41;;;;;;;32.90;22.03;;;4.10;99.90;;;;;;4900229;29;20515;-93
2022/01/25 03:06:06;;;;;;;31.23;21.47;;;4.10;99.90;;;;;;4900149;29;20198;-93
2022/01/25 03:08:32;;;;;;;32.73;21.37;;;4.10;99.90;;;;;;4899937;29;20179;-93
2022/01/25 03:10:59;;;;;;;33.07;21.70;;;4.20;99.90;;;;;;4900472;29;20215;-93
2022/01/25 03:13:32;;;;;;;34.43;22.00;;;4.10;99.90;;;;;;4899718;29;20187;-92
2022/01/25 03:16:03;;;;;;;32.93;21.77;;;4.10;99.90;;;;;;4900019;29;20195;-92
2022/01/25 03:21:20;;;;;;;31.53;20.57;;;4.10;99.90;;;;;;4901766;29;20179;-91
2022/01/25 03:23:47;;;;;;;36.37;22.47;;;4.10;99.90;;;;;;4899640;29;20203;-92
2022/01/25 03:26:13;;;;;;;32.23;21.57;;;4.10;99.90;;;;;;4900056;29;20195;-93
2022/01/25 03:28:39;;;;;;;31.37;21.30;;;4.10;99.90;;;;;;4899759;29;20655;-92
2022/01/25 03:31:04;;;;;;;34.07;22.17;;;4.10;99.90;;;;;;4899378;29;20222;-94
2022/01/25 03:33:30;;;;;;;32.50;21.43;;;4.10;99.90;;;;;;4899462;29;20183;-93
2022/01/25 03:35:56;;;;;;;30.33;20.07;;;4.10;99.90;;;;;;4899108;29;20281;-92
2022/01/25 03:38:22;;;;;;;32.57;21.53;;;4.10;99.90;;;;;;4899456;29;20574;-93
2022/01/25 03:40:49;;;;;;;32.97;22.07;;;4.10;99.90;;;;;;4899846;29;20180;-93
2022/01/25 03:43:18;;;;;;;31.53;21.23;;;4.10;99.90;;;;;;4898993;29;20183;-92
2022/01/25 03:45:56;;;;;;;32.00;20.93;;;4.10;99.90;;;;;;4899599;29;20286;-93
2022/01/25 03:50:50;;;;;;;37.77;22.20;;;4.10;99.90;;;;;;4900865;29;20638;-92
2022/01/25 03:53:18;;;;;;;33.70;22.43;;;4.00;99.90;;;;;;4899646;29;20191;-93
2022/01/25 03:55:45;;;;;;;33.40;21.13;;;4.10;99.90;;;;;;4899517;29;20191;-92
2022/01/25 03:58:11;;;;;;;32.70;22.17;;;4.10;99.90;;;;;;4899615;29;20183;-93
2022/01/25 04:00:38;;;;;;;36.63;21.93;;;4.10;99.90;;;;;;4900215;29;20276;-93
2022/01/25 04:03:09;;;;;;;33.17;22.07;;;4.10;99.90;;;;;;4899649;29;20183;-93
2022/01/25 04:08:06;;;;;;;36.00;22.50;;;4.10;99.90;;;;;;4900240;29;20183;-92
2022/01/25 04:10:32;;;;;;;35.00;21.33;;;4.10;99.90;;;;;;4899298;29;20217;-93
2022/01/25 04:12:59;;;;;;;34.67;24.30;;;4.10;99.90;;;;;;4898745;29;20327;-92
2022/01/25 04:15:25;;;;;;;36.20;23.17;;;4.10;99.90;;;;;;4898390;29;20203;-93
2022/01/25 04:18:00;;;;;;;39.70;24.03;;;4.10;99.90;;;;;;4899730;29;20187;-93
2022/01/25 04:20:31;;;;;;;40.90;24.07;;;4.10;99.90;;;;;;4899758;29;20175;-92
2022/01/25 04:25:41;;;;;;;44.77;25.10;;;4.10;99.90;;;;;;4900128;29;20201;-93
2022/01/25 04:28:07;;;;;;;43.43;24.03;;;4.10;99.90;;;;;;4898036;29;20190;-92
2022/01/25 04:30:33;;;;;;;42.73;25.33;;;4.10;99.90;;;;;;4898912;29;20215;-92
2022/01/25 04:33:03;;;;;;;44.77;26.17;;;4.10;99.90;;;;;;4899166;29;20183;-91
2022/01/25 04:49:16;;;;;;;49.03;27.40;;;4.10;99.90;;;;;;4900339;29;20174;-91
2022/01/25 04:52:00;;;;;;;49.03;28.03;;;4.00;99.90;;;;;;4898782;29;20221;-93
2022/01/25 04:59:50;;;;;;;58.93;30.77;;;4.00;99.90;;;;;;4899936;29;20214;-92
2022/01/25 05:02:26;;;;;;;55.70;30.30;;;4.00;99.90;;;;;;4901782;29;20179;-92
2022/01/25 05:05:04;;;;;;;62.77;32.43;;;3.90;99.90;;;;;;4903010;29;20524;-92
2022/01/25 05:10:15;;;;;;;57.97;31.90;;;3.70;99.90;;;;;;4903757;29;20242;-92
2022/01/25 05:12:50;;;;;;;62.70;32.00;;;3.70;99.90;;;;;;4902471;29;20207;-93
2022/01/25 05:15:27;;;;;;;52.87;30.33;;;3.70;99.90;;;;;;4902385;29;20194;-92
2022/01/25 05:18:09;;;;;;;55.77;29.73;;;3.70;99.90;;;;;;4903524;29;20195;-92
2022/01/25 05:23:18;;;;;;;53.37;28.60;;;3.70;99.90;;;;;;4884836;29;20218;-92
2022/01/25 05:25:44;;;;;;;50.23;28.63;;;3.70;99.90;;;;;;4899058;29;20208;-92
2022/01/25 05:28:10;;;;;;;58.87;30.23;;;3.80;99.90;;;;;;4892361;29;20619;-93
2022/01/25 05:30:36;;;;;;;56.00;29.93;;;3.80;99.90;;;;;;4901747;29;20651;-92
2022/01/25 05:33:02;;;;;;;53.00;28.10;;;3.80;99.90;;;;;;4902157;29;20183;-92
2022/01/25 05:35:27;;;;;;;53.10;28.20;;;3.70;99.90;;;;;;4902200;29;20179;-92
2022/01/25 05:37:53;;;;;;;47.53;26.57;;;3.70;99.90;;;;;;4902150;29;20577;-93
2022/01/25 05:40:39;;;;;;;50.00;26.77;;;3.60;99.90;;;;;;4901612;29;20269;-92
2022/01/25 05:48:27;;;;;;;32.87;18.93;;;3.70;99.90;;;;;;4902786;29;20617;-92
2022/01/25 05:50:53;;;;;;;29.60;17.90;;;3.60;99.90;;;;;;4901961;29;20230;-93
2022/01/25 05:53:20;;;;;;;33.60;19.90;;;3.60;99.90;;;;;;4901734;29;20183;-93
2022/01/25 05:55:45;;;;;;;39.60;22.57;;;3.60;99.90;;;;;;4900804;29;20191;-93
2022/01/25 05:58:11;;;;;;;34.97;19.90;;;3.70;99.90;;;;;;4901277;29;20185;-93
2022/01/25 06:00:38;;;;;;;38.67;22.27;;;3.70;99.90;;;;;;4900778;29;20171;-93
2022/01/25 06:03:05;;;;;;;40.03;23.23;;;3.70;99.90;;;;;;4900543;29;20218;-92
2022/01/25 06:05:32;;;;;;;42.97;24.43;;;3.70;99.90;;;;;;4901473;29;20234;-93
2022/01/25 06:07:57;;;;;;;46.40;24.50;;;3.60;99.90;;;;;;4901424;29;20195;-93
2022/01/25 06:10:23;;;;;;;41.63;24.43;;;3.70;99.90;;;;;;4901488;29;20211;-92
2022/01/25 06:12:49;;;;;;;41.50;23.70;;;3.60;99.90;;;;;;4901286;29;20187;-92
2022/01/25 06:15:14;;;;;;;41.43;23.43;;;3.60;99.90;;;;;;4901355;29;20195;-93
2022/01/25 06:17:41;;;;;;;41.80;23.60;;;3.60;99.90;;;;;;4900831;29;20274;-92
2022/01/25 06:20:07;;;;;;;45.27;24.07;;;3.60;99.90;;;;;;4890882;29;20192;-93
2022/01/25 06:22:34;;;;;;;41.50;23.50;;;3.60;99.90;;;;;;4891835;29;20188;-92
2022/01/25 06:25:00;;;;;;;44.33;24.93;;;3.60;99.90;;;;;;4901680;29;20191;-93
2022/01/25 06:27:26;;;;;;;40.23;23.80;;;3.60;99.90;;;;;;4901246;29;20263;-92
2022/01/25 06:29:51;;;;;;;45.90;24.40;;;3.60;99.90;;;;;;4900971;29;20270;-93
2022/01/25 06:32:19;;;;;;;44.80;24.43;;;3.60;99.90;;;;;;4900465;29;20637;-93
2022/01/25 06:34:45;;;;;;;48.73;26.77;;;3.50;99.90;;;;;;4901102;29;20258;-92
2022/01/25 06:37:12;;;;;;;41.90;25.33;;;3.50;99.90;;;;;;4896721;29;20207;-91
2022/01/25 06:39:39;;;;;;;42.60;24.83;;;3.50;99.90;;;;;;4897572;29;20199;-91
2022/01/25 06:42:05;;;;;;;43.13;24.53;;;3.50;99.90;;;;;;4898090;29;20191;-90
2022/01/25 06:44:33;;;;;;;42.40;23.70;;;3.60;99.90;;;;;;4898492;29;20206;-91
2022/01/25 06:46:59;;;;;;;46.63;23.93;;;3.60;99.90;;;;;;4889754;29;20204;-90
2022/01/25 06:49:25;;;;;;;46.57;25.63;;;3.60;99.90;;;;;;4899217;29;20194;-90
2022/01/25 06:51:51;;;;;;;43.87;23.80;;;3.60;99.90;;;;;;4900577;29;20217;-90
2022/01/25 06:54:16;;;;;;;44.63;24.17;;;3.60;99.90;;;;;;4900406;29;20521;-93
2022/01/25 06:56:42;;;;;;;45.87;25.03;;;3.60;99.90;;;;;;4900523;29;20187;-93
2022/01/25 06:59:08;;;;;;;43.03;24.27;;;3.60;99.90;;;;;;4899921;29;20550;-92
2022/01/25 07:01:33;;;;;;;47.23;25.97;;;3.60;99.90;;;;;;4899974;29;20509;-92
2022/01/25 07:03:59;;;;;;;47.60;26.40;;;3.50;99.90;;;;;;4899916;29;20512;-92
2022/01/25 07:06:25;;;;;;;48.40;27.43;;;3.50;99.90;;;;;;4900058;29;20263;-92
2022/01/25 07:08:53;;;;;;;51.50;27.33;;;3.50;99.90;;;;;;4899616;29;20288;-92
2022/01/25 07:11:19;;;;;;;50.33;27.90;;;3.50;99.90;;;;;;4899952;29;20226;-92
2022/01/25 07:13:46;;;;;;;44.73;25.87;;;3.50;99.90;;;;;;4900233;29;20179;-92
2022/01/25 07:16:11;;;;;;;52.07;27.37;;;3.50;99.90;;;;;;4899645;29;20202;-91
2022/01/25 07:18:37;;;;;;;50.10;28.63;;;3.50;99.90;;;;;;4900146;29;20599;-92
2022/01/25 07:21:03;;;;;;;52.53;28.00;;;3.50;99.90;;;;;;4899504;29;20638;-91
2022/01/25 07:23:28;;;;;;;50.30;27.87;;;3.50;99.90;;;;;;4898397;29;20191;-91
2022/01/25 07:25:54;;;;;;;51.77;28.13;;;3.50;99.90;;;;;;4899239;29;20183;-92
2022/01/25 07:28:21;;;;;;;48.57;27.13;;;3.50;99.90;;;;;;4898893;29;20622;-92
2022/01/25 07:30:47;;;;;;;50.23;27.13;;;3.50;99.90;;;;;;4899718;29;20215;-92
2022/01/25 07:33:13;;;;;;;47.70;26.27;;;3.50;99.90;;;;;;4898867;29;20231;-93
2022/01/25 07:35:40;;;;;;;49.97;27.67;;;3.50;99.90;;;;;;4898911;29;20198;-91
2022/01/25 07:38:06;;;;;;;49.37;28.33;;;3.50;99.90;;;;;;4899582;29;20218;-92
2022/01/25 07:40:35;;;;;;;50.43;27.67;;;3.50;99.90;;;;;;4899741;29;20274;-94
2022/01/25 07:43:01;;;;;;;50.27;27.73;;;3.50;99.90;;;;;;4899739;29;20702;-93
2022/01/25 07:45:28;;;;;;;51.67;27.10;;;3.50;99.90;;;;;;4899208;29;20258;-92
2022/01/25 07:47:54;;;;;;;48.60;27.53;;;3.50;99.90;;;;;;4899409;29;20179;-92
2022/01/25 07:50:20;;;;;;;51.83;28.03;;;3.50;99.90;;;;;;4899490;29;20266;-90
2022/01/25 07:52:45;;;;;;;50.97;27.40;;;3.50;99.90;;;;;;4898856;29;20330;-92
2022/01/25 07:55:11;;;;;;;48.60;27.53;;;3.50;99.90;;;;;;4900207;29;20207;-91
2022/01/25 07:57:37;;;;;;;53.07;27.60;;;3.50;99.90;;;;;;4899052;29;20286;-92
2022/01/25 08:00:05;;;;;;;54.37;28.63;;;3.50;99.90;;;;;;4899017;29;20584;-92
2022/01/25 08:02:31;;;;;;;47.37;26.77;;;3.50;99.90;;;;;;4898913;29;20199;-93
2022/01/25 08:04:57;;;;;;;47.80;27.30;;;3.50;99.90;;;;;;4898912;29;20187;-92
2022/01/25 08:07:22;;;;;;;50.00;26.10;;;3.50;99.90;;;;;;4899114;29;20190;-92
2022/01/25 08:09:48;;;;;;;49.27;26.10;;;3.50;99.90;;;;;;4899101;29;20282;-92
2022/01/25 08:12:14;;;;;;;50.13;26.97;;;3.50;99.90;;;;;;4898912;29;20629;-92
2022/01/25 08:14:42;;;;;;;77.70;26.60;;;3.50;99.90;;;;;;4899223;29;20209;-92
2022/01/25 08:17:08;;;;;;;45.57;25.30;;;3.50;99.90;;;;;;4898345;29;20198;-92
2022/01/25 08:19:33;;;;;;;48.00;26.57;;;3.50;99.90;;;;;;4899190;29;20266;-92
2022/01/25 08:21:59;;;;;;;50.47;26.63;;;3.50;99.90;;;;;;4899186;29;20220;-93
2022/01/25 08:24:25;;;;;;;49.40;26.40;;;3.50;99.90;;;;;;4899233;29;20183;-92
2022/01/25 08:26:51;;;;;;;50.73;26.53;;;3.60;99.90;;;;;;4898449;29;20191;-91
2022/01/25 08:29:18;;;;;;;47.40;26.37;;;3.60;99.90;;;;;;4898947;29;20194;-91
2022/01/25 08:31:44;;;;;;;47.60;27.13;;;3.60;99.90;;;;;;4898508;29;20307;-91
2022/01/25 08:34:13;;;;;;;47.90;26.57;;;3.60;99.90;;;;;;4898745;29;20190;-92
2022/01/25 08:36:39;;;;;;;48.77;27.60;;;3.60;99.90;;;;;;4896417;29;20187;-90
2022/01/25 08:39:06;;;;;;;47.97;27.87;;;3.60;99.90;;;;;;4890359;29;20188;-91
2022/01/25 08:41:33;;;;;;;48.93;28.23;;;3.60;99.90;;;;;;4888325;29;20195;-93
2022/01/25 08:43:59;;;;;;;46.93;27.20;;;3.60;99.90;;;;;;4889902;29;20255;-92
2022/01/25 08:46:25;;;;;;;54.23;28.93;;;3.60;99.90;;;;;;4886503;29;20322;-92
2022/01/25 08:48:50;;;;;;;50.83;27.40;;;3.60;99.90;;;;;;4879730;29;20228;-92
2022/01/25 08:51:16;;;;;;;48.27;28.33;;;3.60;99.90;;;;;;4896430;29;20215;-91
2022/01/25 08:53:42;;;;;;;51.83;27.30;;;3.60;99.90;;;;;;4897786;29;20191;-91
2022/01/25 08:56:08;;;;;;;50.13;28.97;;;3.60;99.90;;;;;;4897685;29;20254;-92
2022/01/25 08:58:34;;;;;;;57.70;30.93;;;3.60;99.90;;;;;;4897887;29;20203;-91
2022/01/25 09:01:00;;;;;;;53.70;29.07;;;3.60;99.90;;;;;;4898669;29;20187;-92
2022/01/25 09:03:26;;;;;;;51.83;28.83;;;3.60;99.90;;;;;;4900446;29;20197;-92
2022/01/25 09:05:52;;;;;;;51.10;27.93;;;3.60;99.90;;;;;;4893212;29;20219;-91
2022/01/25 09:08:22;;;;;;;52.73;28.67;;;3.60;99.90;;;;;;4898827;29;20282;-91
2022/01/25 09:10:51;;;;;;;51.43;28.37;;;3.60;99.90;;;;;;4898926;29;20217;-91
2022/01/25 09:13:20;;;;;;;53.77;28.77;;;3.60;99.90;;;;;;4898666;29;20195;-91
2022/01/25 09:15:46;;;;;;;51.90;28.93;;;3.60;99.90;;;;;;4898377;29;20191;-91
2022/01/25 09:18:12;;;;;;;51.93;27.97;;;3.60;99.90;;;;;;4898413;29;20191;-92
2022/01/25 09:20:39;;;;;;;55.40;28.87;;;3.60;99.90;;;;;;4896849;29;20195;-91
2022/01/25 09:23:05;;;;;;;50.90;28.03;;;3.70;99.90;;;;;;4880496;29;20195;-92
2022/01/25 09:25:31;;;;;;;52.17;28.83;;;3.70;99.90;;;;;;4879846;29;20275;-91
2022/01/25 09:27:58;;;;;;;53.83;29.97;;;3.60;99.90;;;;;;4880370;29;20206;-91
2022/01/25 09:30:23;;;;;;;54.37;28.70;;;3.70;99.90;;;;;;4898270;29;20227;-92
2022/01/25 09:32:49;;;;;;;53.77;28.90;;;3.70;99.90;;;;;;4898025;29;20282;-91
2022/01/25 09:35:15;;;;;;;62.90;30.03;;;3.60;99.90;;;;;;4898662;29;20338;-92
2022/01/25 09:37:41;;;;;;;53.67;29.07;;;3.60;99.90;;;;;;4899238;29;20674;-92
2022/01/25 09:40:09;;;;;;;53.27;29.10;;;3.60;99.90;;;;;;4899058;29;20183;-91
2022/01/25 09:42:36;;;;;;;59.53;30.77;;;3.60;99.90;;;;;;4898596;29;20184;-92
2022/01/25 09:45:02;;;;;;;55.80;31.37;;;3.60;99.90;;;;;;4898461;29;20678;-90
2022/01/25 09:47:27;;;;;;;53.20;29.03;;;3.60;99.90;;;;;;4900302;29;20615;-91
2022/01/25 09:49:53;;;;;;;53.40;30.30;;;3.60;99.90;;;;;;4901876;29;20188;-91
2022/01/25 09:52:19;;;;;;;57.30;30.20;;;3.70;99.90;;;;;;4901957;29;20187;-91
2022/01/25 09:54:54;;;;;;;54.17;30.27;;;3.60;99.90;;;;;;4904149;29;20266;-91
2022/01/25 09:57:20;;;;;;;54.07;29.67;;;3.60;99.90;;;;;;4902000;29;20187;-92
2022/01/25 09:59:46;;;;;;;52.60;30.03;;;3.70;99.90;;;;;;4901931;29;20619;-92
2022/01/25 10:02:13;;;;;;;60.67;30.93;;;3.70;99.90;;;;;;4901623;29;20187;-91
2022/01/25 10:04:41;;;;;;;53.43;29.37;;;3.70;99.90;;;;;;4894429;29;20183;-92
2022/01/25 10:07:10;;;;;;;52.77;29.13;;;3.70;99.90;;;;;;4901449;29;20184;-92
2022/01/25 10:09:42;;;;;;;57.83;29.70;;;3.70;99.90;;;;;;4901254;29;20178;-91
2022/01/25 10:12:19;;;;;;;56.97;30.10;;;3.70;99.90;;;;;;4901473;29;20191;-91
2022/01/25 10:15:00;;;;;;;56.43;30.00;;;3.70;99.90;;;;;;4902271;29;20175;-92
2022/01/25 10:17:34;;;;;;;54.30;28.97;;;3.70;99.90;;;;;;4884020;29;20270;-92
2022/01/25 10:20:00;;;;;;;58.23;29.70;;;3.70;99.90;;;;;;4901146;29;20183;-91
2022/01/25 10:22:26;;;;;;;62.27;29.07;;;3.70;99.90;;;;;;4901687;29;20607;-91
2022/01/25 10:24:52;;;;;;;56.83;28.97;;;3.70;99.90;;;;;;4902411;29;20219;-91
2022/01/25 10:30:09;;;;;;;54.53;27.83;;;3.80;99.90;;;;;;4905261;29;20202;-91
2022/01/25 10:32:39;;;;;;;58.07;28.93;;;3.80;99.90;;;;;;4907270;29;20203;-91
2022/01/25 10:35:16;;;;;;;56.60;28.83;;;3.90;99.90;;;;;;4906762;29;20184;-90
2022/01/25 10:37:42;;;;;;;60.37;30.30;;;4.00;99.90;;;;;;4902073;29;20182;-91
2022/01/25 10:40:08;;;;;;;59.17;29.50;;;4.10;99.90;;;;;;4900968;29;20681;-92
2022/01/25 10:42:35;;;;;;;58.60;29.53;;;4.10;99.90;;;;;;4900755;29;20183;-91
2022/01/25 10:45:17;;;;;;;57.13;29.17;;;4.10;99.90;;;;;;4900674;29;20238;-91
2022/01/25 10:47:44;;;;;;;57.73;28.80;;;4.20;99.90;;;;;;4900436;29;20179;-92
2022/01/25 10:50:21;;;;;;;55.33;28.73;;;4.30;99.90;;;;;;4900836;29;20223;-91
2022/01/25 10:52:47;;;;;;;56.67;30.07;;;4.40;99.90;;;;;;4900783;29;20183;-91
2022/01/25 10:55:16;;;;;;;51.60;27.40;;;4.50;99.90;;;;;;4901190;29;20186;-91
2022/01/25 10:57:42;;;;;;;56.67;29.13;;;4.60;99.90;;;;;;4900050;29;20187;-91
2022/01/25 11:00:10;;;;;;;61.07;29.07;;;4.60;99.90;;;;;;4899412;29;20198;-92
2022/01/25 11:02:57;;;;;;;60.07;27.77;;;4.60;99.90;;;;;;4900246;29;20266;-91
2022/01/25 11:05:23;;;;;;;57.60;28.87;;;4.60;99.90;;;;;;4900372;29;20191;-91
2022/01/25 11:07:49;;;;;;;53.93;28.23;;;4.60;99.90;;;;;;4900132;29;20214;-92
2022/01/25 11:10:22;;;;;;;61.13;28.37;;;4.60;99.90;;;;;;4891672;29;20670;-91
2022/01/25 11:13:22;;;;;;;59.23;28.87;;;4.60;99.90;;;;;;4881919;29;20191;-90
2022/01/25 11:15:34;;;;;;;55.17;28.97;;;4.60;99.90;;;;;;4889156;29;20202;-91
2022/01/25 11:18:00;;;;;;;57.00;28.13;;;4.50;99.90;;;;;;4899451;29;20191;-91
2022/01/25 11:20:26;;;;;;;55.17;26.87;;;4.50;99.90;;;;;;4900397;29;20179;-90
2022/01/25 11:22:53;;;;;;;55.57;27.67;;;4.50;99.90;;;;;;4900019;29;20190;-91
2022/01/25 11:25:22;;;;;;;58.40;28.23;;;4.50;99.90;;;;;;4897986;29;20238;-91
2022/01/25 11:27:48;;;;;;;54.27;27.03;;;4.40;99.90;;;;;;4893995;29;20599;-91
2022/01/25 11:30:18;;;;;;;56.47;28.57;;;4.50;99.90;;;;;;4899649;29;20214;-92
2022/01/25 11:32:47;;;;;;;51.67;26.37;;;4.50;99.90;;;;;;4899365;29;20231;-93
2022/01/25 11:35:19;;;;;;;51.43;26.57;;;4.60;99.90;;;;;;4891869;29;20182;-93
2022/01/25 11:37:48;;;;;;;54.30;25.90;;;4.60;99.90;;;;;;4879802;29;20274;-92
2022/01/25 11:40:30;;;;;;;56.03;26.30;;;4.80;99.90;;;;;;4880093;29;20188;-91
2022/01/25 11:42:59;;;;;;;49.53;25.33;;;4.90;99.90;;;;;;4880917;29;20270;-91
2022/01/25 11:45:28;;;;;;;49.40;24.43;;;4.90;99.90;;;;;;4885107;29;20227;-92
2022/01/25 11:47:55;;;;;;;45.90;24.47;;;4.90;99.90;;;;;;4899335;29;20694;-92
2022/01/25 11:50:29;;;;;;;47.47;23.40;;;4.80;99.90;;;;;;4899003;29;20239;-91
2022/01/25 11:53:05;;;;;;;54.03;25.00;;;4.80;99.90;;;;;;4899659;29;20649;-92
2022/01/25 11:55:37;;;;;;;41.67;23.00;;;4.90;99.90;;;;;;4899496;29;20610;-92
2022/01/25 11:58:09;;;;;;;45.13;23.53;;;5.00;99.90;;;;;;4899438;29;20187;-91
2022/01/25 12:00:50;;;;;;;41.20;22.37;;;5.10;99.90;;;;;;4899561;29;20183;-91
2022/01/25 12:03:33;;;;;;;44.63;21.93;;;5.10;99.90;;;;;;4899203;29;20179;-92
2022/01/25 12:06:04;;;;;;;46.57;23.23;;;5.10;99.90;;;;;;4900370;29;20279;-90
2022/01/25 12:11:52;;;;;;;44.33;22.83;;;5.20;99.90;;;;;;4899784;29;20278;-91
2022/01/25 12:14:40;;;;;;;41.33;21.73;;;5.30;99.90;;;;;;4899507;29;20183;-91
2022/01/25 12:17:06;;;;;;;35.33;18.83;;;5.20;99.90;;;;;;4899081;29;20638;-92
2022/01/25 12:19:45;;;;;;;37.37;20.43;;;5.20;99.90;;;;;;4900532;29;20182;-91
2022/01/25 12:22:24;;;;;;;35.70;19.67;;;5.20;99.90;;;;;;4899040;29;20191;-92
2022/01/25 12:25:04;;;;;;;34.67;19.90;;;5.30;99.90;;;;;;4899122;29;20239;-92
2022/01/25 12:27:58;;;;;;;47.93;19.80;;;5.40;99.90;;;;;;4899044;29;20175;-91
2022/01/25 12:30:46;;;;;;;33.23;18.57;;;5.40;99.90;;;;;;4899457;29;20702;-91
2022/01/25 12:33:22;;;;;;;27.90;16.17;;;5.50;99.90;;;;;;4898687;29;20211;-92
2022/01/25 12:36:01;;;;;;;31.87;16.97;;;5.50;99.90;;;;;;4898704;29;20186;-92
2022/01/25 12:38:38;;;;;;;34.70;17.70;;;5.50;99.90;;;;;;4898718;29;20175;-92
2022/01/25 12:41:10;;;;;;;32.40;18.53;;;5.40;99.90;;;;;;4898801;29;20179;-92
2022/01/25 12:43:39;;;;;;;35.70;18.20;;;5.30;99.90;;;;;;4898961;29;20607;-91
2022/01/25 12:46:16;;;;;;;29.60;16.90;;;5.30;99.90;;;;;;4898424;29;20234;-92
2022/01/25 12:48:48;;;;;;;27.90;16.80;;;5.30;99.90;;;;;;4898388;29;20191;-92
2022/01/25 12:51:26;;;;;;;32.80;16.63;;;5.20;99.90;;;;;;4899727;29;20605;-92
2022/01/25 12:53:54;;;;;;;28.47;14.43;;;5.20;99.90;;;;;;4898533;29;20183;-93
2022/01/25 12:56:27;;;;;;;29.87;16.90;;;5.20;99.90;;;;;;4898390;29;20289;-93
2022/01/25 12:59:00;;;;;;;32.13;17.10;;;5.20;99.90;;;;;;4898714;29;20525;-93
2022/01/25 13:01:26;;;;;;;27.43;17.10;;;5.20;99.90;;;;;;4898672;29;20184;-93
2022/01/25 13:03:59;;;;;;;30.80;16.93;;;5.20;99.90;;;;;;4898647;29;20193;-93
2022/01/25 13:06:50;;;;;;;35.37;18.23;;;5.20;99.90;;;;;;4898520;29;20235;-92
2022/01/25 13:09:40;;;;;;;33.33;18.57;;;5.20;99.90;;;;;;4898690;29;20543;-93
2022/01/25 13:17:15;;;;;;;34.67;18.77;;;5.20;99.90;;;;;;4899491;29;20187;-93
2022/01/25 13:19:58;;;;;;;31.80;18.63;;;5.10;99.90;;;;;;4898614;29;20229;-93
2022/01/25 13:22:30;;;;;;;29.10;16.07;;;5.00;99.90;;;;;;4900383;29;20191;-93
2022/01/25 13:25:14;;;;;;;32.20;17.00;;;5.00;99.90;;;;;;4902127;29;20210;-92
2022/01/25 13:27:50;;;;;;;29.40;17.10;;;5.00;99.90;;;;;;4901778;29;20186;-94
2022/01/25 13:30:40;;;;;;;32.53;18.13;;;5.00;99.90;;;;;;4902176;29;20222;-92
2022/01/25 13:33:07;;;;;;;34.67;19.07;;;5.00;99.90;;;;;;4902302;29;20187;-93
2022/01/25 13:35:37;;;;;;;34.83;18.87;;;5.00;99.90;;;;;;4902074;29;20203;-92
2022/01/25 13:38:16;;;;;;;36.93;19.17;;;5.00;99.90;;;;;;4902077;29;20183;-92
2022/01/25 13:45:53;;;;;;;39.20;19.90;;;4.90;99.90;;;;;;4902716;29;20318;-92
2022/01/25 13:48:21;;;;;;;36.43;19.40;;;4.90;99.90;;;;;;4901764;29;20187;-91
2022/01/25 13:50:51;;;;;;;31.53;17.07;;;4.90;99.90;;;;;;4901829;29;20207;-91
2022/01/25 13:53:18;;;;;;;31.67;16.37;;;5.00;99.90;;;;;;4901686;29;20179;-91
2022/01/25 13:55:48;;;;;;;27.50;16.20;;;5.00;99.90;;;;;;4902049;29;20191;-92
2022/01/25 13:58:20;;;;;;;29.87;15.87;;;5.10;99.90;;;;;;4901673;29;20184;-91
2022/01/25 14:00:46;;;;;;;30.07;15.73;;;5.00;99.90;;;;;;4901629;29;20323;-93
2022/01/25 14:03:15;;;;;;;28.27;15.87;;;5.00;99.90;;;;;;4902548;29;20182;-92
2022/01/25 14:05:40;;;;;;;29.00;15.57;;;5.10;99.90;;;;;;4901572;29;20237;-92
2022/01/25 14:08:06;;;;;;;31.87;17.80;;;5.10;99.90;;;;;;4901689;29;20254;-92
2022/01/25 14:10:53;;;;;;;34.03;17.37;;;5.00;99.90;;;;;;4901157;29;20221;-94
2022/01/25 14:24:09;;;;;;;30.53;16.70;;;4.90;99.90;;;;;;4902571;29;20183;-92
2022/01/25 14:26:35;;;;;;;29.07;16.17;;;4.90;99.90;;;;;;4900981;29;20221;-93
2022/01/25 14:29:17;;;;;;;26.03;14.87;;;5.00;99.90;;;;;;4900943;29;20195;-95
2022/01/25 14:31:46;;;;;;;31.57;14.93;;;5.00;99.90;;;;;;4901255;29;20207;-91
2022/01/25 14:34:14;;;;;;;32.43;14.33;;;5.10;99.90;;;;;;4900962;29;20187;-92
2022/01/25 14:36:43;;;;;;;33.17;15.97;;;5.00;99.90;;;;;;4901043;29;20190;-93
2022/01/25 14:39:09;;;;;;;30.20;15.93;;;4.90;99.90;;;;;;4900950;29;20183;-93
2022/01/25 14:41:37;;;;;;;32.57;16.63;;;5.00;99.90;;;;;;4901048;29;20206;-94
2022/01/25 14:44:12;;;;;;;34.57;17.23;;;4.90;99.90;;;;;;4901303;29;20196;-92
2022/01/25 14:46:49;;;;;;;39.63;18.33;;;4.90;99.90;;;;;;4900563;29;20325;-92
2022/01/25 14:49:28;;;;;;;34.30;18.83;;;4.80;99.90;;;;;;4900465;29;20202;-94
2022/01/25 14:51:58;;;;;;;33.70;17.73;;;4.80;99.90;;;;;;4901009;29;20221;-93
2022/01/25 14:54:25;;;;;;;36.87;18.93;;;4.80;99.90;;;;;;4900694;29;20183;-93
2022/01/25 14:56:55;;;;;;;33.90;18.17;;;4.80;99.90;;;;;;4900915;29;20694;-93
2022/01/25 14:59:31;;;;;;;38.63;20.13;;;4.80;99.90;;;;;;4900505;29;20183;-93
2022/01/25 15:02:09;;;;;;;38.53;19.33;;;4.80;99.90;;;;;;4900549;29;20570;-92
2022/01/25 15:04:40;;;;;;;37.47;20.47;;;4.80;99.90;;;;;;4900182;29;20684;-92
2022/01/25 15:07:08;;;;;;;46.27;20.87;;;4.70;99.90;;;;;;4900209;29;20179;-94